sensor_id;sensor_type;location;lat;lon;timestamp;pressure;altitude;pressure_sealevel;temperature;humidity
21111;BME280;10713;51.912;4.494;2023-02-18T00:01:53;102248.38;;;10.42;100.00
21111;BME280;10713;51.912;4.494;2023-02-18T00:04:19;102245.72;;;10.42;100.00
21111;BME280;10713;51.912;4.494;2023-02-18T00:06:44;102255.31;;;10.46;100.00
21111;BME280;10713;51.912;4.494;2023-02-18T00:09:10;102243.03;;;10.44;100.00
21111;BME280;10713;51.912;4.494;2023-02-18T00:11:36;102243.91;;;10.44;100.00
21111;BME280;10713;51.912;4.494;2023-02-18T00:14:04;102235.13;;;10.44;100.00
21111;BME280;10713;51.912;4.494;2023-02-18T00:16:30;102237.75;;;10.45;100.00
21111;BME280;10713;51.912;4.494;2023-02-18T00:18:57;102228.06;;;10.46;100.00
21111;BME280;10713;51.912;4.494;2023-02-18T00:21:23;102225.47;;;10.41;100.00
21111;BME280;10713;51.912;4.494;2023-02-18T00:23:49;102215.84;;;10.38;100.00
21111;BME280;10713;51.912;4.494;2023-02-18T00:26:16;102213.09;;;10.46;100.00
21111;BME280;10713;51.912;4.494;2023-02-18T00:28:42;102213.09;;;10.46;100.00
21111;BME280;10713;51.912;4.494;2023-02-18T00:31:31;102212.16;;;10.49;100.00
21111;BME280;10713;51.912;4.494;2023-02-18T00:33:56;102215.66;;;10.49;100.00
21111;BME280;10713;51.912;4.494;2023-02-18T00:36:23;102217.50;;;10.47;100.00
21111;BME280;10713;51.912;4.494;2023-02-18T00:38:53;102217.44;;;10.49;100.00
21111;BME280;10713;51.912;4.494;2023-02-18T00:41:21;102212.09;;;10.52;100.00
21111;BME280;10713;51.912;4.494;2023-02-18T00:43:47;102215.59;;;10.54;100.00
21111;BME280;10713;51.912;4.494;2023-02-18T00:46:13;102206.81;;;10.53;100.00
21111;BME280;10713;51.912;4.494;2023-02-18T00:48:39;102193.56;;;10.55;100.00
21111;BME280;10713;51.912;4.494;2023-02-18T00:51:06;102204.06;;;10.58;100.00
21111;BME280;10713;51.912;4.494;2023-02-18T00:53:32;102183.91;;;10.54;100.00
21111;BME280;10713;51.912;4.494;2023-02-18T00:55:57;102195.41;;;10.51;100.00
21111;BME280;10713;51.912;4.494;2023-02-18T00:58:23;102189.22;;;10.52;100.00
21111;BME280;10713;51.912;4.494;2023-02-18T01:00:49;102196.25;;;10.52;100.00
21111;BME280;10713;51.912;4.494;2023-02-18T01:03:15;102183.94;;;10.52;100.00
21111;BME280;10713;51.912;4.494;2023-02-18T01:05:41;102172.50;;;10.53;100.00
21111;BME280;10713;51.912;4.494;2023-02-18T01:08:08;102175.06;;;10.56;100.00
21111;BME280;10713;51.912;4.494;2023-02-18T01:10:35;102179.31;;;10.65;100.00
21111;BME280;10713;51.912;4.494;2023-02-18T01:13:01;102175.75;;;10.66;100.00
21111;BME280;10713;51.912;4.494;2023-02-18T01:15:28;102181.09;;;10.65;100.00
21111;BME280;10713;51.912;4.494;2023-02-18T01:17:54;102172.31;;;10.63;100.00
21111;BME280;10713;51.912;4.494;2023-02-18T01:20:20;102172.22;;;10.67;100.00
21111;BME280;10713;51.912;4.494;2023-02-18T01:22:45;102167.00;;;10.64;100.00
21111;BME280;10713;51.912;4.494;2023-02-18T01:25:11;102186.38;;;10.63;100.00
21111;BME280;10713;51.912;4.494;2023-02-18T01:27:37;102180.19;;;10.64;100.00
21111;BME280;10713;51.912;4.494;2023-02-18T01:30:04;102175.72;;;10.69;100.00
21111;BME280;10713;51.912;4.494;2023-02-18T01:32:30;102177.53;;;10.66;100.00
21111;BME280;10713;51.912;4.494;2023-02-18T01:34:55;102170.47;;;10.66;100.00
21111;BME280;10713;51.912;4.494;2023-02-18T01:37:21;102161.69;;;10.66;100.00
21111;BME280;10713;51.912;4.494;2023-02-18T01:39:46;102157.28;;;10.66;100.00
21111;BME280;10713;51.912;4.494;2023-02-18T01:42:20;102151.09;;;10.67;100.00
21111;BME280;10713;51.912;4.494;2023-02-18T01:44:47;102154.59;;;10.69;100.00
21111;BME280;10713;51.912;4.494;2023-02-18T01:47:14;102152.91;;;10.65;100.00
21111;BME280;10713;51.912;4.494;2023-02-18T01:49:40;102146.75;;;10.65;100.00
21111;BME280;10713;51.912;4.494;2023-02-18T01:52:14;102145.59;;;10.78;100.00
21111;BME280;10713;51.912;4.494;2023-02-18T01:54:48;102144.69;;;10.80;100.00
21111;BME280;10713;51.912;4.494;2023-02-18T01:57:19;102137.06;;;10.64;100.00
21111;BME280;10713;51.912;4.494;2023-02-18T01:59:51;102143.22;;;10.66;100.00
21111;BME280;10713;51.912;4.494;2023-02-18T02:02:19;102139.66;;;10.67;100.00
21111;BME280;10713;51.912;4.494;2023-02-18T02:04:46;102134.31;;;10.70;100.00
21111;BME280;10713;51.912;4.494;2023-02-18T02:07:11;102131.72;;;10.68;100.00
21111;BME280;10713;51.912;4.494;2023-02-18T02:09:38;102130.78;;;10.71;100.00
21111;BME280;10713;51.912;4.494;2023-02-18T02:17:48;102112.13;;;10.78;100.00
21111;BME280;10713;51.912;4.494;2023-02-18T02:31:36;102095.41;;;10.79;100.00
21111;BME280;10713;51.912;4.494;2023-02-18T02:34:31;102091.91;;;10.79;100.00
21111;BME280;10713;51.912;4.494;2023-02-18T02:39:44;102069.94;;;10.75;100.00
21111;BME280;10713;51.912;4.494;2023-02-18T02:44:56;102048.94;;;10.71;100.00
21111;BME280;10713;51.912;4.494;2023-02-18T02:47:36;102038.38;;;10.71;100.00
21111;BME280;10713;51.912;4.494;2023-02-18T02:50:16;102037.44;;;10.72;100.00
21111;BME280;10713;51.912;4.494;2023-02-18T02:52:47;102034.78;;;10.73;100.00
21111;BME280;10713;51.912;4.494;2023-02-18T02:55:14;102035.66;;;10.74;100.00
21111;BME280;10713;51.912;4.494;2023-02-18T02:57:43;102024.16;;;10.76;100.00
21111;BME280;10713;51.912;4.494;2023-02-18T03:00:11;102028.53;;;10.77;100.00
21111;BME280;10713;51.912;4.494;2023-02-18T03:05:54;102016.06;;;10.84;100.00
21111;BME280;10713;51.912;4.494;2023-02-18T03:11:11;102016.97;;;10.81;100.00
21111;BME280;10713;51.912;4.494;2023-02-18T03:21:29;102014.34;;;10.81;100.00
21111;BME280;10713;51.912;4.494;2023-02-18T03:23:59;102003.91;;;10.77;100.00
21111;BME280;10713;51.912;4.494;2023-02-18T03:26:27;102006.53;;;10.77;100.00
21111;BME280;10713;51.912;4.494;2023-02-18T03:28:57;101996.75;;;10.80;100.00
21111;BME280;10713;51.912;4.494;2023-02-18T03:31:26;101993.28;;;10.78;100.00
21111;BME280;10713;51.912;4.494;2023-02-18T03:33:56;101978.34;;;10.77;100.00
21111;BME280;10713;51.912;4.494;2023-02-18T03:36:24;101976.75;;;10.70;100.00
21111;BME280;10713;51.912;4.494;2023-02-18T03:38:55;101964.34;;;10.74;100.00
21111;BME280;10713;51.912;4.494;2023-02-18T03:41:23;101972.34;;;10.69;100.00
21111;BME280;10713;51.912;4.494;2023-02-18T03:43:50;101962.63;;;10.71;100.00
21111;BME280;10713;51.912;4.494;2023-02-18T03:46:16;101963.59;;;10.67;100.00
21111;BME280;10713;51.912;4.494;2023-02-18T03:48:41;101961.91;;;10.65;100.00
21111;BME280;10713;51.912;4.494;2023-02-18T03:51:07;101955.06;;;10.56;100.00
21111;BME280;10713;51.912;4.494;2023-02-18T03:53:32;101947.06;;;10.59;100.00
21111;BME280;10713;51.912;4.494;2023-02-18T03:55:57;101953.22;;;10.59;100.00
21111;BME280;10713;51.912;4.494;2023-02-18T03:58:23;101947.03;;;10.60;100.00
21111;BME280;10713;51.912;4.494;2023-02-18T04:00:48;101943.53;;;10.60;100.00
21111;BME280;10713;51.912;4.494;2023-02-18T04:03:13;101941.41;;;10.76;100.00
21111;BME280;10713;51.912;4.494;2023-02-18T04:05:39;101942.31;;;10.75;100.00
21111;BME280;10713;51.912;4.494;2023-02-18T04:08:04;101946.09;;;10.63;100.00
21111;BME280;10713;51.912;4.494;2023-02-18T04:10:30;101944.38;;;10.62;100.00
21111;BME280;10713;51.912;4.494;2023-02-18T04:12:55;101943.50;;;10.62;100.00
21111;BME280;10713;51.912;4.494;2023-02-18T04:15:20;101948.72;;;10.65;100.00
21111;BME280;10713;51.912;4.494;2023-02-18T04:17:46;101952.22;;;10.65;100.00
21111;BME280;10713;51.912;4.494;2023-02-18T04:20:11;101950.34;;;10.70;100.00
21111;BME280;10713;51.912;4.494;2023-02-18T04:22:37;101957.44;;;10.68;100.00
21111;BME280;10713;51.912;4.494;2023-02-18T04:25:02;101941.53;;;10.70;100.00
21111;BME280;10713;51.912;4.494;2023-02-18T04:27:28;101937.97;;;10.72;100.00
21111;BME280;10713;51.912;4.494;2023-02-18T04:29:53;101946.78;;;10.71;100.00
21111;BME280;10713;51.912;4.494;2023-02-18T04:32:18;101938.94;;;10.68;100.00
21111;BME280;10713;51.912;4.494;2023-02-18T04:34:44;101953.94;;;10.68;100.00
21111;BME280;10713;51.912;4.494;2023-02-18T04:37:09;101939.91;;;10.64;100.00
21111;BME280;10713;51.912;4.494;2023-02-18T04:39:35;101928.47;;;10.64;100.00
21111;BME280;10713;51.912;4.494;2023-02-18T04:42:00;101943.44;;;10.63;100.00
21111;BME280;10713;51.912;4.494;2023-02-18T04:44:26;101933.88;;;10.59;100.00
21111;BME280;10713;51.912;4.494;2023-02-18T04:46:51;101914.47;;;10.62;100.00
21111;BME280;10713;51.912;4.494;2023-02-18T04:49:16;101917.09;;;10.62;100.00
21111;BME280;10713;51.912;4.494;2023-02-18T04:51:42;101914.41;;;10.63;100.00
21111;BME280;10713;51.912;4.494;2023-02-18T04:54:07;101914.41;;;10.63;100.00
21111;BME280;10713;51.912;4.494;2023-02-18T04:56:32;101897.69;;;10.63;100.00
21111;BME280;10713;51.912;4.494;2023-02-18T04:58:58;101908.25;;;10.63;100.00
21111;BME280;10713;51.912;4.494;2023-02-18T05:01:24;101903.78;;;10.66;100.00
21111;BME280;10713;51.912;4.494;2023-02-18T05:03:49;101896.84;;;10.62;100.00
21111;BME280;10713;51.912;4.494;2023-02-18T05:06:15;101912.53;;;10.68;100.00
21111;BME280;10713;51.912;4.494;2023-02-18T05:08:40;101888.84;;;10.65;100.00
21111;BME280;10713;51.912;4.494;2023-02-18T05:11:07;101909.91;;;10.68;100.00
21111;BME280;10713;51.912;4.494;2023-02-18T05:13:32;101903.63;;;10.72;100.00
21111;BME280;10713;51.912;4.494;2023-02-18T05:15:58;101904.63;;;10.67;100.00
21111;BME280;10713;51.912;4.494;2023-02-18T05:18:24;101905.50;;;10.67;100.00
21111;BME280;10713;51.912;4.494;2023-02-18T05:20:49;101898.41;;;10.69;100.00
21111;BME280;10713;51.912;4.494;2023-02-18T05:23:14;101893.19;;;10.68;100.00
21111;BME280;10713;51.912;4.494;2023-02-18T05:25:40;101897.56;;;10.67;100.00
21111;BME280;10713;51.912;4.494;2023-02-18T05:28:05;101902.84;;;10.67;100.00
21111;BME280;10713;51.912;4.494;2023-02-18T05:30:31;101884.38;;;10.67;100.00
21111;BME280;10713;51.912;4.494;2023-02-18T05:32:56;101879.97;;;10.68;100.00
21111;BME280;10713;51.912;4.494;2023-02-18T05:35:21;101879.03;;;10.70;100.00
21111;BME280;10713;51.912;4.494;2023-02-18T05:37:47;101869.44;;;10.66;100.00
21111;BME280;10713;51.912;4.494;2023-02-18T05:40:12;101873.81;;;10.67;100.00
21111;BME280;10713;51.912;4.494;2023-02-18T05:42:37;101871.22;;;10.66;100.00
21111;BME280;10713;51.912;4.494;2023-02-18T05:45:03;101866.88;;;10.63;100.00
21111;BME280;10713;51.912;4.494;2023-02-18T05:47:28;101862.81;;;10.86;100.00
21111;BME280;10713;51.912;4.494;2023-02-18T05:49:54;101861.03;;;10.88;100.00
21111;BME280;10713;51.912;4.494;2023-02-18T05:52:20;101858.38;;;10.88;100.00
21111;BME280;10713;51.912;4.494;2023-02-18T05:54:46;101865.38;;;10.89;100.00
21111;BME280;10713;51.912;4.494;2023-02-18T05:57:13;101860.03;;;10.92;100.00
21111;BME280;10713;51.912;4.494;2023-02-18T05:59:39;101853.91;;;10.90;100.00
21111;BME280;10713;51.912;4.494;2023-02-18T06:02:04;101858.16;;;10.95;100.00
21111;BME280;10713;51.912;4.494;2023-02-18T06:04:30;101861.72;;;10.94;100.00
21111;BME280;10713;51.912;4.494;2023-02-18T06:06:55;101858.31;;;10.91;100.00
21111;BME280;10713;51.912;4.494;2023-02-18T06:09:21;101861.72;;;10.94;100.00
21111;BME280;10713;51.912;4.494;2023-02-18T06:11:46;101859.56;;;10.76;100.00
21111;BME280;10713;51.912;4.494;2023-02-18T06:14:11;101862.91;;;10.81;100.00
21111;BME280;10713;51.912;4.494;2023-02-18T06:16:37;101857.88;;;10.72;100.00
21111;BME280;10713;51.912;4.494;2023-02-18T06:19:03;101861.44;;;10.69;100.00
21111;BME280;10713;51.912;4.494;2023-02-18T06:21:28;101872.00;;;10.71;100.00
21111;BME280;10713;51.912;4.494;2023-02-18T06:23:54;101857.09;;;10.68;100.00
21111;BME280;10713;51.912;4.494;2023-02-18T06:26:19;101858.72;;;10.72;100.00
21111;BME280;10713;51.912;4.494;2023-02-18T06:28:44;101856.94;;;10.74;100.00
21111;BME280;10713;51.912;4.494;2023-02-18T06:31:10;101856.06;;;10.74;100.00
21111;BME280;10713;51.912;4.494;2023-02-18T06:33:35;101870.94;;;10.78;100.00
21111;BME280;10713;51.912;4.494;2023-02-18T06:36:03;101858.72;;;10.72;100.00
21111;BME280;10713;51.912;4.494;2023-02-18T06:38:35;101866.66;;;10.72;100.00
21111;BME280;10713;51.912;4.494;2023-02-18T06:41:01;101865.00;;;10.68;100.00
21111;BME280;10713;51.912;4.494;2023-02-18T06:43:27;101867.78;;;10.62;100.00
21111;BME280;10713;51.912;4.494;2023-02-18T06:45:52;101849.38;;;10.59;100.00
21111;BME280;10713;51.912;4.494;2023-02-18T06:48:18;101851.94;;;10.62;100.00
21111;BME280;10713;51.912;4.494;2023-02-18T06:50:44;101851.13;;;10.58;100.00
21111;BME280;10713;51.912;4.494;2023-02-18T06:53:10;101859.00;;;10.62;100.00
21111;BME280;10713;51.912;4.494;2023-02-18T06:55:35;101853.81;;;10.57;100.00
21111;BME280;10713;51.912;4.494;2023-02-18T06:58:01;101841.56;;;10.54;100.00
21111;BME280;10713;51.912;4.494;2023-02-18T07:00:26;101847.69;;;10.56;100.00
21111;BME280;10713;51.912;4.494;2023-02-18T07:02:52;101853.88;;;10.54;100.00
21111;BME280;10713;51.912;4.494;2023-02-18T07:05:17;101864.59;;;10.48;100.00
21111;BME280;10713;51.912;4.494;2023-02-18T07:07:42;101853.13;;;10.49;100.00
21111;BME280;10713;51.912;4.494;2023-02-18T07:10:08;101859.19;;;10.52;100.00
21111;BME280;10713;51.912;4.494;2023-02-18T07:12:34;101842.47;;;10.53;100.00
21111;BME280;10713;51.912;4.494;2023-02-18T07:14:59;101843.28;;;10.55;100.00
21111;BME280;10713;51.912;4.494;2023-02-18T07:17:24;101844.19;;;10.56;100.00
21111;BME280;10713;51.912;4.494;2023-02-18T07:19:50;101844.97;;;10.58;100.00
21111;BME280;10713;51.912;4.494;2023-02-18T07:22:16;101846.34;;;10.76;100.00
21111;BME280;10713;51.912;4.494;2023-02-18T07:24:41;101849.25;;;10.64;100.00
21111;BME280;10713;51.912;4.494;2023-02-18T07:27:07;101844.03;;;10.60;100.00
21111;BME280;10713;51.912;4.494;2023-02-18T07:29:32;101847.41;;;10.67;100.00
21111;BME280;10713;51.912;4.494;2023-02-18T07:31:58;101842.97;;;10.69;100.00
21111;BME280;10713;51.912;4.494;2023-02-18T07:34:23;101840.31;;;10.69;100.00
21111;BME280;10713;51.912;4.494;2023-02-18T07:36:48;101838.59;;;10.68;100.00
21111;BME280;10713;51.912;4.494;2023-02-18T07:39:14;101836.66;;;10.75;100.00
21111;BME280;10713;51.912;4.494;2023-02-18T07:41:40;101846.34;;;10.76;100.00
21111;BME280;10713;51.912;4.494;2023-02-18T07:44:05;101839.28;;;10.76;100.00
21111;BME280;10713;51.912;4.494;2023-02-18T07:46:31;101842.72;;;10.78;100.00
21111;BME280;10713;51.912;4.494;2023-02-18T07:48:57;101838.28;;;10.80;100.00
21111;BME280;10713;51.912;4.494;2023-02-18T07:51:22;101845.38;;;10.78;100.00
21111;BME280;10713;51.912;4.494;2023-02-18T07:53:47;101859.47;;;10.79;100.00
21111;BME280;10713;51.912;4.494;2023-02-18T07:56:13;101849.69;;;10.82;100.00
21111;BME280;10713;51.912;4.494;2023-02-18T07:58:38;101870.03;;;10.79;100.00
21111;BME280;10713;51.912;4.494;2023-02-18T08:01:09;101859.31;;;10.85;100.00
21111;BME280;10713;51.912;4.494;2023-02-18T08:03:35;101851.34;;;10.87;100.00
21111;BME280;10713;51.912;4.494;2023-02-18T08:06:02;101850.56;;;10.83;100.00
21111;BME280;10713;51.912;4.494;2023-02-18T08:08:29;101860.97;;;10.89;100.00
21111;BME280;10713;51.912;4.494;2023-02-18T08:10:56;101853.19;;;10.83;100.00
21111;BME280;10713;51.912;4.494;2023-02-18T08:13:23;101861.91;;;10.87;100.00
21111;BME280;10713;51.912;4.494;2023-02-18T08:15:48;101857.50;;;10.87;100.00
21111;BME280;10713;51.912;4.494;2023-02-18T08:18:17;101857.44;;;10.90;100.00
21111;BME280;10713;51.912;4.494;2023-02-18T08:20:43;101849.63;;;10.86;100.00
21111;BME280;10713;51.912;4.494;2023-02-18T08:23:10;101850.38;;;10.91;100.00
21111;BME280;10713;51.912;4.494;2023-02-18T08:25:35;101843.31;;;10.91;100.00
21111;BME280;10713;51.912;4.494;2023-02-18T08:28:00;101854.75;;;10.92;100.00
21111;BME280;10713;51.912;4.494;2023-02-18T08:30:26;101846.81;;;10.93;100.00
21111;BME280;10713;51.912;4.494;2023-02-18T08:32:51;101853.72;;;10.99;100.00
21111;BME280;10713;51.912;4.494;2023-02-18T08:35:17;101848.34;;;11.02;100.00
21111;BME280;10713;51.912;4.494;2023-02-18T08:37:43;101845.63;;;11.05;100.00
21111;BME280;10713;51.912;4.494;2023-02-18T08:40:09;101852.53;;;11.11;100.00
21111;BME280;10713;51.912;4.494;2023-02-18T08:42:34;101870.13;;;11.10;100.00
21111;BME280;10713;51.912;4.494;2023-02-18T08:45:00;101858.66;;;11.11;100.00
21111;BME280;10713;51.912;4.494;2023-02-18T08:47:25;101853.25;;;11.16;100.00
21111;BME280;10713;51.912;4.494;2023-02-18T08:49:54;101854.94;;;11.20;100.00
21111;BME280;10713;51.912;4.494;2023-02-18T08:52:20;101861.06;;;11.20;100.00
21111;BME280;10713;51.912;4.494;2023-02-18T08:54:45;101865.31;;;11.27;100.00
21111;BME280;10713;51.912;4.494;2023-02-18T08:57:11;101860.88;;;11.28;100.00
21111;BME280;10713;51.912;4.494;2023-02-18T08:59:36;101878.72;;;11.20;100.00
21111;BME280;10713;51.912;4.494;2023-02-18T09:02:01;101862.00;;;11.19;100.00
21111;BME280;10713;51.912;4.494;2023-02-18T09:04:27;101870.09;;;11.13;100.00
21111;BME280;10713;51.912;4.494;2023-02-18T09:06:52;101859.69;;;11.05;100.00
21111;BME280;10713;51.912;4.494;2023-02-18T09:09:17;101898.25;;;11.13;100.00
21111;BME280;10713;51.912;4.494;2023-02-18T09:11:44;101883.31;;;11.12;100.00
21111;BME280;10713;51.912;4.494;2023-02-18T09:14:09;101884.25;;;11.09;100.00
21111;BME280;10713;51.912;4.494;2023-02-18T09:16:35;101873.75;;;11.08;100.00
21111;BME280;10713;51.912;4.494;2023-02-18T09:19:02;101897.53;;;11.08;100.00
21111;BME280;10713;51.912;4.494;2023-02-18T09:21:27;101880.66;;;11.13;100.00
21111;BME280;10713;51.912;4.494;2023-02-18T09:23:53;101893.22;;;11.03;100.00
21111;BME280;10713;51.912;4.494;2023-02-18T09:26:20;101890.53;;;11.05;100.00
21111;BME280;10713;51.912;4.494;2023-02-18T09:28:48;101903.69;;;11.07;100.00
21111;BME280;10713;51.912;4.494;2023-02-18T09:31:15;101894.16;;;11.01;100.00
21111;BME280;10713;51.912;4.494;2023-02-18T09:33:46;101896.63;;;11.07;100.00
21111;BME280;10713;51.912;4.494;2023-02-18T09:36:12;101890.41;;;11.10;100.00
21111;BME280;10713;51.912;4.494;2023-02-18T09:38:38;101902.72;;;11.11;100.00
21111;BME280;10713;51.912;4.494;2023-02-18T09:41:07;101902.66;;;11.14;100.00
21111;BME280;10713;51.912;4.494;2023-02-18T09:43:40;101907.03;;;11.15;100.00
21111;BME280;10713;51.912;4.494;2023-02-18T09:46:20;101916.56;;;11.22;100.00
21111;BME280;10713;51.912;4.494;2023-02-18T09:48:48;101909.31;;;11.28;100.00
21111;BME280;10713;51.912;4.494;2023-02-18T09:51:16;101918.03;;;11.32;100.00
21111;BME280;10713;51.912;4.494;2023-02-18T09:53:43;101915.31;;;11.35;100.00
21111;BME280;10713;51.912;4.494;2023-02-18T09:56:24;101919.63;;;11.39;100.00
21111;BME280;10713;51.912;4.494;2023-02-18T09:58:52;101917.81;;;11.41;100.00
21111;BME280;10713;51.912;4.494;2023-02-18T10:01:27;101904.44;;;11.47;100.00
21111;BME280;10713;51.912;4.494;2023-02-18T10:03:57;101902.53;;;11.53;100.00
21111;BME280;10713;51.912;4.494;2023-02-18T10:06:30;101921.84;;;11.56;100.00
21111;BME280;10713;51.912;4.494;2023-02-18T10:09:00;101918.13;;;11.63;100.00
21111;BME280;10713;51.912;4.494;2023-02-18T10:13:59;101909.91;;;11.74;100.00
21111;BME280;10713;51.912;4.494;2023-02-18T10:16:26;101915.00;;;11.82;100.00
21111;BME280;10713;51.912;4.494;2023-02-18T10:18:54;101918.50;;;11.82;100.00
21111;BME280;10713;51.912;4.494;2023-02-18T10:21:26;101924.03;;;11.73;100.00
21111;BME280;10713;51.912;4.494;2023-02-18T10:26:23;101928.22;;;11.82;100.00
21111;BME280;10713;51.912;4.494;2023-02-18T10:28:48;101915.81;;;11.84;100.00
21111;BME280;10713;51.912;4.494;2023-02-18T10:31:19;101952.84;;;11.84;100.00
21111;BME280;10713;51.912;4.494;2023-02-18T10:36:46;101930.97;;;11.77;100.00
21111;BME280;10713;51.912;4.494;2023-02-18T10:50:09;101960.63;;;11.90;100.00
21111;BME280;10713;51.912;4.494;2023-02-18T10:52:45;101950.13;;;11.88;100.00
21111;BME280;10713;51.912;4.494;2023-02-18T10:55:14;101949.09;;;11.92;100.00
21111;BME280;10713;51.912;4.494;2023-02-18T10:57:51;101947.31;;;11.93;100.00
21111;BME280;10713;51.912;4.494;2023-02-18T11:00:24;101947.66;;;12.13;100.00
21111;BME280;10713;51.912;4.494;2023-02-18T11:05:34;101938.34;;;12.30;100.00
21111;BME280;10713;51.912;4.494;2023-02-18T11:08:00;101949.66;;;12.36;100.00
21111;BME280;10713;51.912;4.494;2023-02-18T11:10:33;101920.38;;;12.41;100.00
21111;BME280;10713;51.912;4.494;2023-02-18T11:13:02;101920.91;;;12.52;100.00
21111;BME280;10713;51.912;4.494;2023-02-18T11:15:28;101934.22;;;12.51;100.00
21111;BME280;10713;51.912;4.494;2023-02-18T11:17:56;101946.22;;;12.62;100.00
21111;BME280;10713;51.912;4.494;2023-02-18T11:20:31;101920.53;;;12.65;100.00
21111;BME280;10713;51.912;4.494;2023-02-18T11:23:14;101922.31;;;12.64;100.00
21111;BME280;10713;51.912;4.494;2023-02-18T11:25:41;101937.94;;;12.73;100.00
21111;BME280;10713;51.912;4.494;2023-02-18T11:28:29;101944.47;;;12.91;100.00
21111;BME280;10713;51.912;4.494;2023-02-18T11:30:58;101940.78;;;12.95;100.00
21111;BME280;10713;51.912;4.494;2023-02-18T11:36:09;101945.69;;;13.07;100.00
21111;BME280;10713;51.912;4.494;2023-02-18T11:38:44;101936.97;;;13.04;100.00
21111;BME280;10713;51.912;4.494;2023-02-18T11:41:17;101936.09;;;13.05;100.00
21111;BME280;10713;51.912;4.494;2023-02-18T11:43:49;101938.56;;;13.10;100.00
21111;BME280;10713;51.912;4.494;2023-02-18T11:46:19;101928.16;;;13.03;100.00
21111;BME280;10713;51.912;4.494;2023-02-18T11:48:46;101938.88;;;13.00;100.00
21111;BME280;10713;51.912;4.494;2023-02-18T11:51:22;101940.78;;;12.95;100.00
21111;BME280;10713;51.912;4.494;2023-02-18T11:54:20;101945.53;;;12.85;100.00
21111;BME280;10713;51.912;4.494;2023-02-18T11:57:03;101931.53;;;12.80;100.00
21111;BME280;10713;51.912;4.494;2023-02-18T11:59:33;101938.66;;;12.78;100.00
21111;BME280;10713;51.912;4.494;2023-02-18T12:04:42;101935.16;;;12.78;100.00
21111;BME280;10713;51.912;4.494;2023-02-18T12:10:14;101926.00;;;12.88;100.00
21111;BME280;10713;51.912;4.494;2023-02-18T12:23:55;101927.56;;;13.22;100.00
21111;BME280;10713;51.912;4.494;2023-02-18T12:34:19;101909.25;;;13.42;100.00
21111;BME280;10713;51.912;4.494;2023-02-18T12:48:15;101899.81;;;13.34;100.00
21111;BME280;10713;51.912;4.494;2023-02-18T12:53:20;101926.13;;;13.40;100.00
21111;BME280;10713;51.912;4.494;2023-02-18T12:58:50;101916.69;;;13.56;100.00
21111;BME280;10713;51.912;4.494;2023-02-18T13:01:47;101921.03;;;13.59;100.00
21111;BME280;10713;51.912;4.494;2023-02-18T13:04:37;101920.81;;;13.65;100.00
21111;BME280;10713;51.912;4.494;2023-02-18T13:10:40;101907.03;;;13.55;100.00
21111;BME280;10713;51.912;4.494;2023-02-18T13:13:10;101920.94;;;13.62;100.00
21111;BME280;10713;51.912;4.494;2023-02-18T13:15:47;101921.09;;;13.57;100.00
21111;BME280;10713;51.912;4.494;2023-02-18T13:18:23;101918.38;;;13.59;100.00
21111;BME280;10713;51.912;4.494;2023-02-18T13:20:55;101921.75;;;13.64;100.00
21111;BME280;10713;51.912;4.494;2023-02-18T13:23:25;101920.66;;;13.69;100.00
21111;BME280;10713;51.912;4.494;2023-02-18T13:25:58;101920.53;;;13.74;100.00
21111;BME280;10713;51.912;4.494;2023-02-18T13:39:17;101917.00;;;13.73;100.00
21111;BME280;10713;51.912;4.494;2023-02-18T13:41:46;101922.25;;;13.75;100.00
21111;BME280;10713;51.912;4.494;2023-02-18T13:46:51;101910.78;;;13.74;100.00
21111;BME280;10713;51.912;4.494;2023-02-18T13:49:20;101914.25;;;13.77;100.00
21111;BME280;10713;51.912;4.494;2023-02-18T13:51:49;101917.78;;;13.75;100.00
21111;BME280;10713;51.912;4.494;2023-02-18T13:54:27;101916.72;;;13.81;100.00
21111;BME280;10713;51.912;4.494;2023-02-18T13:57:20;101910.16;;;13.91;100.00
21111;BME280;10713;51.912;4.494;2023-02-18T13:59:49;101918.13;;;13.91;100.00
21111;BME280;10713;51.912;4.494;2023-02-18T14:09:44;101911.41;;;13.81;100.00
21111;BME280;10713;51.912;4.494;2023-02-18T14:12:26;101915.09;;;13.77;100.00
21111;BME280;10713;51.912;4.494;2023-02-18T14:14:59;101915.38;;;13.69;100.00
21111;BME280;10713;51.912;4.494;2023-02-18T14:17:33;101924.63;;;13.58;100.00
21111;BME280;10713;51.912;4.494;2023-02-18T14:27:38;101913.63;;;13.43;100.00
21111;BME280;10713;51.912;4.494;2023-02-18T14:30:23;101928.72;;;13.41;100.00
21111;BME280;10713;51.912;4.494;2023-02-18T14:32:51;101922.78;;;13.33;100.00
21111;BME280;10713;51.912;4.494;2023-02-18T14:38:22;101933.47;;;13.32;100.00
21111;BME280;10713;51.912;4.494;2023-02-18T14:51:30;101927.47;;;13.25;100.00
21111;BME280;10713;51.912;4.494;2023-02-18T14:54:03;101923.88;;;13.27;100.00
21111;BME280;10713;51.912;4.494;2023-02-18T14:56:29;101918.53;;;13.29;100.00
21111;BME280;10713;51.912;4.494;2023-02-18T14:58:56;101927.31;;;13.31;100.00
21111;BME280;10713;51.912;4.494;2023-02-18T15:01:28;101921.28;;;13.24;100.00
21111;BME280;10713;51.912;4.494;2023-02-18T15:03:54;101928.47;;;13.21;100.00
21111;BME280;10713;51.912;4.494;2023-02-18T15:06:31;101925.81;;;13.21;100.00
21111;BME280;10713;51.912;4.494;2023-02-18T15:08:58;101920.59;;;13.19;100.00
21111;BME280;10713;51.912;4.494;2023-02-18T15:11:36;101923.19;;;13.21;100.00
21111;BME280;10713;51.912;4.494;2023-02-18T15:14:13;101923.53;;;13.10;100.00